Time;durP1;ratioP1;P1;durP2;ratioP2;P2;SDS_P1;SDS_P2;PMS_P1;PMS_P2;Temp;Humidity;BMP_temperature;BMP_pressure;BME280_temperature;BME280_humidity;BME280_pressure;Samples;Min_cycle;Max_cycle;Signal;HPM_P1;HPM_P2
2021/07/03 00:02:05;;;;;;;14.95;9.18;;;22.40;89.70;;;;;;5055741;28;20029;-73
2021/07/03 00:04:30;;;;;;;12.50;9.90;;;22.30;89.60;;;;;;5055495;28;20395;-73
2021/07/03 00:06:56;;;;;;;13.95;8.50;;;22.30;89.80;;;;;;5055600;28;20033;-72
2021/07/03 00:09:22;;;;;;;13.35;7.20;;;22.20;89.90;;;;;;5055505;28;20039;-73
2021/07/03 00:11:48;;;;;;;10.48;5.97;;;22.20;90.10;;;;;;5055562;28;20021;-73
2021/07/03 00:14:14;;;;;;;11.10;5.80;;;22.20;90.10;;;;;;5055549;28;20029;-72
2021/07/03 00:16:40;;;;;;;8.88;4.93;;;22.10;90.10;;;;;;5055265;28;20021;-73
2021/07/03 00:19:06;;;;;;;7.80;4.78;;;22.10;90.10;;;;;;5055204;28;20027;-72
2021/07/03 00:21:32;;;;;;;6.10;4.55;;;22.00;90.10;;;;;;5055380;28;20025;-73
2021/07/03 00:23:58;;;;;;;8.25;4.68;;;22.00;90.10;;;;;;5055067;28;20029;-72
2021/07/03 00:26:24;;;;;;;6.53;4.43;;;22.00;90.00;;;;;;5055233;28;20332;-73
2021/07/03 00:28:50;;;;;;;7.32;4.85;;;21.90;89.80;;;;;;5054011;28;20471;-72
2021/07/03 00:31:16;;;;;;;8.60;4.90;;;21.80;89.90;;;;;;5055059;28;20040;-73
2021/07/03 00:33:42;;;;;;;10.45;4.68;;;21.80;90.00;;;;;;5055230;28;20479;-73
2021/07/03 00:39:33;;;;;;;6.90;4.78;;;21.70;90.00;;;;;;5074643;28;20379;-73
2021/07/03 00:41:59;;;;;;;7.00;4.55;;;21.60;89.80;;;;;;5074973;28;20177;-73
2021/07/03 00:44:26;;;;;;;8.32;4.75;;;21.60;89.60;;;;;;5074871;28;20104;-72
2021/07/03 00:46:51;;;;;;;7.53;4.70;;;21.60;89.40;;;;;;5074864;28;20036;-73
2021/07/03 00:49:17;;;;;;;8.02;5.30;;;21.50;89.40;;;;;;5074812;28;20378;-73
2021/07/03 00:51:43;;;;;;;7.15;4.55;;;21.50;89.40;;;;;;5074319;28;20331;-72
2021/07/03 00:54:09;;;;;;;7.20;4.80;;;21.40;89.20;;;;;;5075026;28;20036;-75
2021/07/03 00:56:35;;;;;;;9.55;5.30;;;21.40;89.30;;;;;;5074953;28;20033;-72
2021/07/03 00:59:00;;;;;;;11.93;5.82;;;21.40;89.10;;;;;;5073419;28;20025;-72
2021/07/03 01:01:26;;;;;;;9.18;5.22;;;21.40;89.10;;;;;;5074231;28;20085;-73
2021/07/03 01:03:52;;;;;;;9.23;5.18;;;21.30;89.10;;;;;;5074285;28;20027;-73
2021/07/03 01:06:18;;;;;;;9.27;5.60;;;21.20;88.90;;;;;;5074414;28;20074;-72
2021/07/03 01:08:45;;;;;;;9.82;6.38;;;21.20;89.00;;;;;;5074546;28;20052;-72
2021/07/03 01:11:10;;;;;;;7.25;5.57;;;21.20;89.10;;;;;;5074030;28;20512;-72
2021/07/03 01:13:36;;;;;;;10.65;6.47;;;21.20;89.10;;;;;;5074694;28;20029;-72
2021/07/03 01:16:02;;;;;;;10.20;7.10;;;21.20;89.00;;;;;;5074480;28;20040;-72
2021/07/03 01:18:28;;;;;;;14.23;7.68;;;21.10;89.00;;;;;;5073913;28;20052;-72
2021/07/03 01:20:54;;;;;;;9.52;7.47;;;21.10;88.90;;;;;;5074289;28;20033;-72
2021/07/03 01:23:21;;;;;;;12.23;7.20;;;21.10;88.70;;;;;;5074057;28;20036;-72
2021/07/03 01:25:47;;;;;;;12.85;7.53;;;21.10;88.60;;;;;;5074439;28;20025;-72
2021/07/03 01:28:13;;;;;;;11.02;7.10;;;21.10;88.60;;;;;;5074013;28;20074;-72
2021/07/03 01:30:39;;;;;;;12.80;7.75;;;21.10;88.40;;;;;;5073988;28;20378;-72
2021/07/03 01:33:04;;;;;;;11.18;8.23;;;21.10;88.30;;;;;;5074001;28;20111;-72
2021/07/03 01:35:31;;;;;;;13.10;7.93;;;21.10;88.30;;;;;;5073903;28;20029;-72
2021/07/03 01:37:58;;;;;;;18.48;9.82;;;21.10;88.20;;;;;;5074240;28;20117;-72
2021/07/03 01:40:25;;;;;;;18.92;8.63;;;21.10;88.00;;;;;;5073167;28;20458;-72
2021/07/03 01:42:50;;;;;;;14.55;7.97;;;21.10;88.10;;;;;;5073865;28;20103;-72
2021/07/03 01:45:16;;;;;;;16.08;8.95;;;21.10;88.00;;;;;;5073611;28;20115;-73
2021/07/03 01:47:48;;;;;;;16.20;8.43;;;21.10;88.00;;;;;;5073818;28;20028;-73
2021/07/03 01:50:14;;;;;;;16.92;7.97;;;21.10;87.70;;;;;;5073628;28;20032;-73
2021/07/03 01:52:40;;;;;;;14.00;7.82;;;21.10;87.50;;;;;;5073926;28;20110;-73
2021/07/03 01:55:08;;;;;;;10.43;6.90;;;21.10;87.20;;;;;;5073384;28;20036;-73
2021/07/03 01:57:34;;;;;;;15.07;8.25;;;21.20;87.00;;;;;;5073236;28;20057;-73
2021/07/03 02:00:01;;;;;;;16.70;7.88;;;21.20;86.90;;;;;;5073806;28;20029;-73
2021/07/03 02:02:27;;;;;;;17.13;9.10;;;21.20;86.30;;;;;;5073243;28;20489;-73
2021/07/03 02:04:52;;;;;;;14.90;8.88;;;21.20;86.00;;;;;;5073287;28;20028;-73
2021/07/03 02:07:18;;;;;;;17.98;9.57;;;21.20;85.60;;;;;;5072212;28;20028;-72
2021/07/03 02:09:44;;;;;;;20.58;10.35;;;21.20;85.50;;;;;;5073459;28;20421;-73
2021/07/03 02:12:09;;;;;;;18.63;9.57;;;21.30;85.20;;;;;;5073226;28;20028;-72
2021/07/03 02:14:35;;;;;;;17.80;10.60;;;21.30;84.80;;;;;;5073338;28;20020;-73
2021/07/03 02:17:01;;;;;;;23.58;10.23;;;21.30;84.90;;;;;;5072910;28;20055;-72
2021/07/03 02:19:26;;;;;;;19.20;9.73;;;21.30;84.70;;;;;;5073301;28;20081;-73
2021/07/03 02:21:52;;;;;;;21.30;9.60;;;21.30;84.50;;;;;;5073539;28;20466;-73
2021/07/03 02:24:18;;;;;;;17.85;9.40;;;21.40;84.50;;;;;;5073418;28;20032;-73
2021/07/03 02:26:43;;;;;;;19.85;9.80;;;21.30;84.30;;;;;;5073216;28;20037;-73
2021/07/03 02:29:09;;;;;;;15.07;8.60;;;21.40;84.20;;;;;;5073056;28;20102;-73
2021/07/03 02:31:35;;;;;;;13.98;7.43;;;21.40;84.00;;;;;;5072966;28;20055;-73
2021/07/03 02:34:01;;;;;;;13.73;7.20;;;21.40;83.90;;;;;;5073276;28;20028;-73
2021/07/03 02:36:27;;;;;;;10.88;7.07;;;21.40;83.70;;;;;;5073154;28;20107;-73
2021/07/03 02:38:53;;;;;;;10.65;7.35;;;21.40;83.50;;;;;;5073247;28;20102;-73
2021/07/03 02:41:18;;;;;;;12.65;6.82;;;21.40;83.50;;;;;;5071819;28;20052;-73
2021/07/03 02:43:44;;;;;;;13.98;7.65;;;21.40;83.40;;;;;;5073084;28;20514;-73
2021/07/03 02:46:10;;;;;;;15.25;6.75;;;21.50;83.40;;;;;;5073407;28;20031;-73
2021/07/03 02:48:35;;;;;;;14.85;7.15;;;21.50;83.30;;;;;;5073412;28;20029;-73
2021/07/03 02:51:01;;;;;;;15.25;7.38;;;21.60;83.10;;;;;;5072780;28;20064;-73
2021/07/03 02:53:27;;;;;;;10.43;6.75;;;21.60;83.00;;;;;;5076281;28;20044;-73
2021/07/03 02:55:53;;;;;;;13.63;7.55;;;21.60;82.90;;;;;;5076834;28;20036;-73
2021/07/03 02:58:18;;;;;;;10.82;7.57;;;21.70;82.80;;;;;;5076931;28;20025;-74
2021/07/03 03:00:44;;;;;;;14.23;7.68;;;21.70;82.80;;;;;;5076927;28;20067;-74
2021/07/03 03:03:10;;;;;;;14.18;7.80;;;21.80;82.80;;;;;;5076929;28;20447;-74
2021/07/03 03:05:35;;;;;;;14.27;8.68;;;21.80;82.80;;;;;;5076477;28;20025;-73
2021/07/03 03:08:01;;;;;;;18.48;8.65;;;21.90;82.70;;;;;;5076713;28;20078;-73
2021/07/03 03:10:27;;;;;;;14.48;9.60;;;21.90;82.70;;;;;;5076595;28;20029;-73
2021/07/03 03:12:52;;;;;;;32.85;14.07;;;22.00;82.50;;;;;;5076726;28;20068;-73
2021/07/03 03:15:18;;;;;;;43.03;15.85;;;22.00;82.40;;;;;;5076759;28;20029;-76
2021/07/03 03:17:44;;;;;;;45.17;17.63;;;22.00;82.20;;;;;;5076544;28;20474;-73
2021/07/03 03:20:11;;;;;;;60.55;27.35;;;22.10;82.10;;;;;;5075834;28;20028;-73
2021/07/03 03:22:38;;;;;;;73.30;29.55;;;22.10;81.90;;;;;;5076391;28;20034;-73
2021/07/03 03:25:06;;;;;;;87.00;43.38;;;22.10;81.90;;;;;;5076443;28;20040;-73
2021/07/03 03:27:32;;;;;;;79.10;43.50;;;22.10;82.40;;;;;;5059991;28;20029;-73
2021/07/03 03:29:57;;;;;;;76.47;41.85;;;22.10;81.80;;;;;;5056430;28;20033;-73
2021/07/03 03:32:23;;;;;;;71.32;34.92;;;22.10;81.70;;;;;;5073987;28;20031;-73
2021/07/03 03:34:49;;;;;;;55.78;31.40;;;22.20;81.50;;;;;;5055742;28;20116;-73
2021/07/03 03:37:15;;;;;;;46.70;29.02;;;22.20;81.30;;;;;;5056261;28;20352;-73
2021/07/03 03:39:40;;;;;;;43.97;20.08;;;22.30;81.80;;;;;;5055994;28;20519;-74
2021/07/03 03:42:06;;;;;;;35.30;20.40;;;22.30;80.70;;;;;;5071562;28;20033;-73
2021/07/03 03:44:32;;;;;;;26.85;13.45;;;22.30;80.70;;;;;;5055992;28;20032;-73
2021/07/03 03:46:58;;;;;;;26.35;14.88;;;22.30;80.40;;;;;;5056026;28;20025;-73
2021/07/03 03:49:24;;;;;;;22.80;13.23;;;22.40;80.40;;;;;;5054301;28;20040;-73
2021/07/03 03:51:50;;;;;;;23.90;13.27;;;22.40;80.50;;;;;;5056060;28;20055;-72
2021/07/03 03:54:17;;;;;;;16.33;10.20;;;22.40;80.50;;;;;;5060311;28;20028;-73
2021/07/03 03:56:42;;;;;;;15.82;9.55;;;22.50;80.20;;;;;;5070609;28;20025;-72
2021/07/03 03:59:11;;;;;;;16.52;9.07;;;22.60;79.80;;;;;;5074532;28;20029;-73
2021/07/03 04:01:37;;;;;;;11.93;8.45;;;22.60;79.50;;;;;;5074135;28;20028;-72
2021/07/03 04:04:04;;;;;;;12.18;7.57;;;22.70;79.20;;;;;;5074304;28;20013;-73
2021/07/03 04:06:30;;;;;;;20.60;9.27;;;22.70;78.40;;;;;;5074418;28;20413;-73
2021/07/03 04:08:56;;;;;;;12.88;7.93;;;22.70;78.10;;;;;;5074038;28;20421;-72
2021/07/03 04:11:22;;;;;;;14.80;9.45;;;22.80;78.00;;;;;;5071604;28;20032;-72
2021/07/03 04:13:48;;;;;;;16.50;11.10;;;22.70;77.80;;;;;;5074213;28;20100;-73
2021/07/03 04:16:14;;;;;;;22.98;12.85;;;22.70;77.70;;;;;;5073973;28;20050;-73
2021/07/03 04:18:41;;;;;;;23.35;11.35;;;22.70;77.70;;;;;;5073984;28;20359;-73
2021/07/03 04:21:06;;;;;;;20.85;11.38;;;22.70;77.90;;;;;;5074120;28;20036;-74
2021/07/03 04:23:32;;;;;;;18.88;10.30;;;22.80;78.00;;;;;;5074080;28;20440;-74
2021/07/03 04:25:58;;;;;;;25.77;15.27;;;22.90;78.00;;;;;;5072786;28;20108;-73
2021/07/03 04:28:24;;;;;;;27.35;13.35;;;23.00;77.80;;;;;;5073948;28;20024;-74
2021/07/03 04:30:49;;;;;;;26.27;13.85;;;23.10;77.70;;;;;;5074134;28;20370;-74
2021/07/03 04:33:15;;;;;;;30.20;12.75;;;23.10;77.30;;;;;;5073814;28;20029;-74
2021/07/03 04:35:41;;;;;;;28.20;12.65;;;23.20;77.10;;;;;;5073716;28;20533;-74
2021/07/03 04:38:06;;;;;;;22.58;13.07;;;23.30;76.70;;;;;;5073383;28;20028;-75
2021/07/03 04:40:32;;;;;;;26.98;11.85;;;23.30;76.80;;;;;;5072514;28;20580;-73
2021/07/03 04:42:58;;;;;;;23.45;11.57;;;23.30;76.50;;;;;;5073235;28;20021;-73
2021/07/03 04:45:24;;;;;;;18.63;11.65;;;23.40;76.60;;;;;;5073211;28;20035;-73
2021/07/03 04:47:51;;;;;;;25.67;13.20;;;23.50;76.40;;;;;;5073425;28;20019;-73
2021/07/03 04:50:17;;;;;;;20.88;13.98;;;23.60;76.10;;;;;;5073299;28;20483;-74
2021/07/03 04:52:42;;;;;;;22.65;12.60;;;23.70;75.90;;;;;;5073421;28;20049;-74
2021/07/03 04:55:09;;;;;;;26.30;13.38;;;23.80;75.70;;;;;;5073011;28;20474;-74
2021/07/03 04:57:35;;;;;;;25.45;13.32;;;23.90;75.50;;;;;;5072786;28;20402;-74
2021/07/03 05:00:00;;;;;;;25.85;13.48;;;23.90;75.20;;;;;;5073061;28;20029;-74
2021/07/03 05:02:26;;;;;;;22.50;13.20;;;24.00;75.00;;;;;;5071914;28;20505;-73
2021/07/03 05:04:52;;;;;;;22.17;13.05;;;24.10;74.90;;;;;;5074571;28;20530;-73
2021/07/03 05:07:18;;;;;;;23.35;12.82;;;24.20;74.70;;;;;;5073997;28;20440;-73
2021/07/03 05:09:43;;;;;;;28.90;13.63;;;24.20;74.60;;;;;;5073194;28;20032;-73
2021/07/03 05:12:09;;;;;;;20.30;12.85;;;24.30;74.50;;;;;;5073980;28;20056;-73
2021/07/03 05:14:36;;;;;;;22.83;13.35;;;24.40;74.20;;;;;;5073479;28;20450;-74
2021/07/03 05:17:02;;;;;;;26.45;13.88;;;24.50;73.90;;;;;;5073695;28;20099;-74
2021/07/03 05:19:28;;;;;;;22.27;13.30;;;24.60;73.70;;;;;;5073517;28;20103;-73
2021/07/03 05:21:54;;;;;;;18.45;12.80;;;24.70;73.30;;;;;;5073584;28;20027;-73
2021/07/03 05:24:20;;;;;;;23.08;13.13;;;24.70;72.90;;;;;;5073746;28;20024;-74
2021/07/03 05:26:45;;;;;;;24.05;14.35;;;24.70;72.90;;;;;;5073407;28;20098;-73
2021/07/03 05:29:11;;;;;;;27.65;15.93;;;24.80;72.60;;;;;;5073553;28;20031;-73
2021/07/03 05:31:37;;;;;;;19.10;14.27;;;24.80;72.40;;;;;;5072011;28;20475;-73
2021/07/03 05:34:02;;;;;;;22.17;13.38;;;24.90;72.20;;;;;;5074015;28;20146;-73
2021/07/03 05:36:28;;;;;;;19.42;14.10;;;24.90;71.70;;;;;;5074109;28;20032;-73
2021/07/03 05:38:55;;;;;;;25.15;14.57;;;24.90;71.70;;;;;;5073447;28;20077;-73
2021/07/03 05:41:21;;;;;;;26.80;13.77;;;25.00;71.90;;;;;;5073790;28;20387;-73
2021/07/03 05:43:46;;;;;;;21.00;14.90;;;25.00;71.80;;;;;;5073548;28;20035;-73
2021/07/03 05:46:12;;;;;;;26.50;14.32;;;25.10;71.80;;;;;;5073895;28;20436;-73
2021/07/03 05:48:40;;;;;;;23.77;14.82;;;25.20;72.50;;;;;;5073687;28;20420;-73
2021/07/03 05:51:06;;;;;;;22.25;14.52;;;25.20;71.60;;;;;;5073958;28;20036;-73
2021/07/03 05:53:32;;;;;;;25.77;15.48;;;25.30;71.60;;;;;;5074103;28;20052;-73
2021/07/03 05:55:58;;;;;;;27.05;13.60;;;25.30;71.40;;;;;;5089235;28;20095;-73
2021/07/03 05:58:24;;;;;;;22.45;12.57;;;25.40;71.30;;;;;;5073341;28;20035;-72
2021/07/03 06:00:50;;;;;;;23.90;11.77;;;25.60;71.20;;;;;;5073837;28;20115;-73
2021/07/03 06:03:15;;;;;;;18.38;11.68;;;25.70;70.50;;;;;;5073578;28;20032;-73
2021/07/03 06:05:41;;;;;;;19.13;12.70;;;25.80;70.00;;;;;;5073522;28;20020;-73
2021/07/03 06:08:07;;;;;;;19.10;13.38;;;25.90;69.70;;;;;;5073592;28;20035;-73
2021/07/03 06:10:33;;;;;;;18.67;11.95;;;26.10;69.70;;;;;;5072985;28;20036;-72
2021/07/03 06:12:59;;;;;;;19.52;13.10;;;26.10;69.70;;;;;;5073716;28;20039;-73
2021/07/03 06:15:25;;;;;;;23.17;13.73;;;26.20;69.80;;;;;;5073213;28;20055;-76
2021/07/03 06:17:51;;;;;;;26.02;13.75;;;26.30;69.90;;;;;;5073289;28;20422;-72
2021/07/03 06:20:18;;;;;;;24.15;13.32;;;26.30;69.80;;;;;;5073422;28;20056;-72
2021/07/03 06:22:43;;;;;;;18.95;13.35;;;26.40;69.70;;;;;;5073554;28;20031;-73
2021/07/03 06:25:10;;;;;;;25.88;13.15;;;26.50;69.70;;;;;;5072906;28;20021;-73
2021/07/03 06:27:39;;;;;;;17.73;12.32;;;26.60;69.40;;;;;;5072090;28;20020;-73
2021/07/03 06:30:07;;;;;;;23.08;12.38;;;26.60;68.90;;;;;;5073123;28;20116;-74
2021/07/03 06:32:33;;;;;;;20.88;11.13;;;26.70;68.80;;;;;;5073052;28;20032;-74
2021/07/03 06:34:59;;;;;;;15.80;10.30;;;26.80;68.70;;;;;;5073066;28;20020;-73
2021/07/03 06:37:24;;;;;;;15.55;10.07;;;26.80;68.30;;;;;;5073051;28;20039;-73
2021/07/03 06:39:50;;;;;;;17.92;11.55;;;26.90;68.00;;;;;;5072864;28;20032;-73
2021/07/03 06:42:19;;;;;;;23.25;10.98;;;27.00;67.80;;;;;;5073190;28;20029;-73
2021/07/03 06:44:46;;;;;;;15.30;10.50;;;27.00;67.60;;;;;;5072807;28;20136;-74
2021/07/03 06:47:12;;;;;;;18.50;10.70;;;27.00;67.60;;;;;;5072964;28;20394;-73
2021/07/03 06:49:38;;;;;;;9.73;8.55;;;27.00;67.40;;;;;;5072714;28;20032;-73
2021/07/03 06:52:04;;;;;;;11.45;8.45;;;27.00;67.10;;;;;;5072612;28;20126;-74
2021/07/03 06:54:30;;;;;;;13.10;9.15;;;27.00;66.70;;;;;;5073035;28;20028;-74
2021/07/03 06:56:58;;;;;;;14.82;9.13;;;27.00;66.60;;;;;;5072795;28;20451;-74
2021/07/03 06:59:27;;;;;;;13.20;8.55;;;27.00;66.50;;;;;;5072593;28;20035;-74
2021/07/03 07:01:54;;;;;;;11.32;7.50;;;27.10;66.30;;;;;;5072745;28;20497;-73
2021/07/03 07:04:22;;;;;;;14.32;6.95;;;27.10;66.10;;;;;;5073097;28;20067;-73
2021/07/03 07:06:49;;;;;;;12.23;7.85;;;27.10;65.90;;;;;;5072684;28;20031;-73
2021/07/03 07:09:16;;;;;;;13.55;7.55;;;27.10;65.80;;;;;;5072286;28;20024;-74
2021/07/03 07:11:41;;;;;;;10.43;6.78;;;27.10;65.70;;;;;;5072457;28;20032;-73
2021/07/03 07:14:07;;;;;;;16.60;10.30;;;27.20;65.60;;;;;;5072954;28;20074;-73
2021/07/03 07:16:34;;;;;;;11.13;7.55;;;27.30;65.20;;;;;;5072840;28;20025;-73
2021/07/03 07:19:00;;;;;;;11.95;7.55;;;27.40;65.20;;;;;;5072335;28;20021;-73
2021/07/03 07:21:26;;;;;;;12.15;8.18;;;27.40;65.10;;;;;;5071536;28;20071;-74
2021/07/03 07:23:51;;;;;;;14.75;8.40;;;27.40;65.00;;;;;;5072746;28;20075;-73
2021/07/03 07:26:17;;;;;;;11.38;8.57;;;27.50;65.00;;;;;;5071214;28;20034;-73
2021/07/03 07:28:43;;;;;;;11.00;8.68;;;27.50;65.00;;;;;;5072285;28;20046;-73
2021/07/03 07:31:10;;;;;;;11.50;8.15;;;27.60;64.90;;;;;;5072541;28;20047;-74
2021/07/03 07:33:36;;;;;;;12.98;8.80;;;27.60;64.80;;;;;;5072220;28;20029;-74
2021/07/03 07:36:02;;;;;;;12.25;8.70;;;27.60;64.70;;;;;;5072619;28;20387;-75
2021/07/03 07:38:28;;;;;;;12.90;8.93;;;27.60;64.70;;;;;;5072133;28;20111;-73
2021/07/03 07:40:53;;;;;;;16.30;8.95;;;27.70;64.80;;;;;;5075620;28;20381;-74
2021/07/03 07:43:19;;;;;;;20.42;8.93;;;27.70;64.80;;;;;;5076106;28;20020;-74
2021/07/03 07:45:45;;;;;;;12.25;9.13;;;27.80;64.80;;;;;;5075987;28;20378;-74
2021/07/03 07:48:11;;;;;;;16.40;9.32;;;27.80;64.40;;;;;;5075868;28;20063;-73
2021/07/03 07:50:36;;;;;;;12.57;8.25;;;27.90;64.80;;;;;;5075888;28;20040;-73
2021/07/03 07:53:03;;;;;;;9.48;8.05;;;28.00;64.00;;;;;;5075609;28;20102;-73
2021/07/03 07:55:30;;;;;;;14.52;8.82;;;28.00;63.80;;;;;;5075832;28;20027;-75
2021/07/03 07:57:56;;;;;;;12.20;8.07;;;28.10;63.80;;;;;;5075516;28;20089;-72
2021/07/03 08:00:22;;;;;;;13.85;9.43;;;28.10;63.50;;;;;;5075462;28;20132;-73
2021/07/03 08:02:49;;;;;;;13.00;8.85;;;28.20;63.20;;;;;;5074135;28;20036;-72
2021/07/03 08:05:16;;;;;;;12.80;9.18;;;28.30;63.20;;;;;;5072160;28;20016;-74
2021/07/03 08:07:42;;;;;;;12.82;8.40;;;28.30;63.00;;;;;;5072663;28;20160;-74
2021/07/03 08:10:08;;;;;;;14.70;10.00;;;28.40;62.60;;;;;;5074033;28;20032;-74
2021/07/03 08:12:34;;;;;;;13.32;9.50;;;28.50;62.70;;;;;;5072036;28;20071;-74
2021/07/03 08:15:00;;;;;;;11.80;8.82;;;28.70;62.80;;;;;;5074025;28;20025;-72
2021/07/03 08:17:26;;;;;;;10.57;7.72;;;28.80;62.50;;;;;;5074909;28;20040;-74
2021/07/03 08:19:51;;;;;;;12.98;7.53;;;28.90;61.80;;;;;;5075114;28;20028;-74
2021/07/03 08:22:17;;;;;;;12.27;8.23;;;29.00;61.40;;;;;;5074636;28;20024;-75
2021/07/03 08:24:43;;;;;;;10.73;7.25;;;29.20;61.10;;;;;;5074450;28;20031;-73
2021/07/03 08:27:08;;;;;;;14.10;8.05;;;29.40;61.00;;;;;;5075210;28;20029;-73
2021/07/03 08:29:34;;;;;;;10.23;7.53;;;29.50;60.60;;;;;;5074110;28;20466;-74
2021/07/03 08:32:00;;;;;;;9.65;6.95;;;29.70;60.10;;;;;;5075101;28;20111;-73
2021/07/03 08:34:25;;;;;;;9.80;7.00;;;29.90;59.80;;;;;;5074768;28;20061;-73
2021/07/03 08:36:51;;;;;;;9.32;6.47;;;30.10;59.70;;;;;;5074634;28;20052;-74
2021/07/03 08:39:17;;;;;;;13.20;7.43;;;30.20;59.10;;;;;;5074933;28;20023;-73
2021/07/03 08:41:43;;;;;;;10.07;7.47;;;30.40;58.90;;;;;;5068776;28;20050;-73
2021/07/03 08:44:12;;;;;;;8.68;6.45;;;30.60;58.40;;;;;;5074780;28;20029;-73
2021/07/03 08:46:38;;;;;;;7.07;6.13;;;30.90;58.40;;;;;;5064910;28;20463;-74
2021/07/03 08:49:04;;;;;;;10.13;6.40;;;31.20;57.80;;;;;;5074496;28;20037;-73
2021/07/03 08:51:30;;;;;;;11.63;9.25;;;31.50;57.40;;;;;;5073886;28;20093;-73
2021/07/03 08:53:56;;;;;;;11.60;7.68;;;31.60;57.00;;;;;;5074996;28;20475;-73
2021/07/03 08:56:22;;;;;;;12.38;6.93;;;31.70;56.90;;;;;;5074611;28;20035;-73
2021/07/03 08:58:48;;;;;;;11.40;6.70;;;31.70;56.50;;;;;;5074549;28;20041;-73
2021/07/03 09:01:14;;;;;;;10.60;6.40;;;31.80;56.40;;;;;;5075099;28;20367;-75
2021/07/03 09:03:51;;;;;;;7.30;6.38;;;31.90;56.40;;;;;;5074326;28;20031;-73
2021/07/03 09:06:16;;;;;;;10.10;6.40;;;32.00;56.00;;;;;;5074556;28;20111;-74
2021/07/03 09:08:52;;;;;;;10.43;6.18;;;32.20;55.90;;;;;;5074036;28;20542;-73
2021/07/03 09:11:18;;;;;;;8.98;6.18;;;32.40;55.20;;;;;;5074517;28;20032;-75
2021/07/03 09:13:44;;;;;;;9.55;6.07;;;32.60;54.90;;;;;;5074105;28;20086;-73
2021/07/03 09:16:10;;;;;;;9.93;6.13;;;32.90;54.60;;;;;;5071598;28;20025;-73
2021/07/03 09:18:36;;;;;;;9.68;6.30;;;33.00;54.40;;;;;;5073076;28;20455;-74
2021/07/03 09:21:04;;;;;;;14.80;6.85;;;33.00;54.30;;;;;;5062838;28;20523;-73
2021/07/03 09:23:39;;;;;;;9.23;6.35;;;32.80;54.30;;;;;;5070424;28;20029;-73
2021/07/03 09:26:10;;;;;;;9.93;6.80;;;32.60;54.30;;;;;;5063414;28;20458;-74
2021/07/03 09:28:40;;;;;;;12.93;6.45;;;32.80;54.60;;;;;;5053135;28;20059;-76
2021/07/03 09:31:07;;;;;;;12.68;7.03;;;33.10;54.30;;;;;;5053197;28;20068;-74
2021/07/03 09:33:34;;;;;;;7.93;6.68;;;33.40;54.00;;;;;;5053400;28;20021;-73
2021/07/03 09:36:09;;;;;;;10.57;7.15;;;33.60;53.60;;;;;;5059733;28;20029;-75
2021/07/03 09:38:38;;;;;;;15.18;7.07;;;33.90;53.30;;;;;;5070219;28;20020;-75
2021/07/03 09:41:09;;;;;;;10.13;7.03;;;34.20;53.20;;;;;;5072368;28;20090;-73
2021/07/03 09:43:35;;;;;;;9.57;7.20;;;34.40;52.80;;;;;;5072659;28;20021;-73
2021/07/03 09:46:01;;;;;;;15.98;8.65;;;34.70;52.40;;;;;;5072920;28;20402;-73
2021/07/03 09:48:27;;;;;;;8.60;7.15;;;35.00;52.20;;;;;;5072021;28;20016;-73
2021/07/03 09:50:53;;;;;;;10.80;7.50;;;35.20;51.70;;;;;;5072931;28;20394;-74
2021/07/03 09:53:20;;;;;;;11.88;7.78;;;35.50;51.30;;;;;;5073519;28;20044;-73
2021/07/03 09:55:45;;;;;;;9.68;6.65;;;35.70;50.60;;;;;;5073196;28;20469;-73
2021/07/03 09:58:12;;;;;;;9.05;6.75;;;36.00;49.90;;;;;;5073685;28;20021;-73
2021/07/03 10:00:38;;;;;;;9.02;7.13;;;36.20;50.00;;;;;;5073381;28;20472;-73
2021/07/03 10:03:08;;;;;;;10.93;6.93;;;36.40;49.80;;;;;;5073095;28;20375;-73
2021/07/03 10:05:39;;;;;;;14.25;6.80;;;36.50;49.40;;;;;;5073447;28;20024;-73
2021/07/03 10:08:11;;;;;;;10.82;6.60;;;36.80;49.10;;;;;;5073308;28;20040;-74
2021/07/03 10:10:43;;;;;;;11.38;6.80;;;37.20;49.00;;;;;;5072178;28;20115;-74
2021/07/03 10:13:15;;;;;;;8.32;6.50;;;37.60;48.80;;;;;;5073386;28;20101;-74
2021/07/03 10:15:41;;;;;;;10.77;6.85;;;37.80;48.10;;;;;;5072846;28;20463;-74
2021/07/03 10:18:08;;;;;;;11.98;7.13;;;37.80;48.00;;;;;;5073347;28;20027;-74
2021/07/03 10:20:34;;;;;;;8.07;6.57;;;37.80;48.10;;;;;;5073402;28;20120;-73
2021/07/03 10:26:32;;;;;;;9.43;6.75;;;38.10;48.00;;;;;;5051763;28;20571;-74
2021/07/03 10:28:58;;;;;;;7.00;6.07;;;38.40;47.80;;;;;;5062659;28;20107;-73
2021/07/03 10:31:32;;;;;;;7.53;6.43;;;38.50;47.50;;;;;;5072167;28;20123;-76
2021/07/03 10:33:58;;;;;;;10.95;6.38;;;38.30;47.40;;;;;;5071582;28;20103;-74
2021/07/03 10:36:33;;;;;;;10.63;7.35;;;38.10;47.40;;;;;;5072903;28;20034;-74
2021/07/03 10:39:01;;;;;;;8.68;6.63;;;38.30;47.30;;;;;;5072576;28;20428;-73
2021/07/03 10:41:32;;;;;;;9.38;6.80;;;38.40;47.30;;;;;;5068588;28;20116;-73
2021/07/03 10:44:07;;;;;;;9.38;6.60;;;38.60;47.10;;;;;;5072770;28;20544;-75
2021/07/03 10:46:35;;;;;;;9.10;6.63;;;38.80;46.40;;;;;;5072633;28;20029;-74
2021/07/03 10:49:07;;;;;;;9.55;6.50;;;38.50;46.70;;;;;;5072900;28;20028;-73
2021/07/03 10:51:39;;;;;;;10.93;7.28;;;38.50;47.20;;;;;;5072989;28;20123;-73
2021/07/03 10:54:20;;;;;;;10.75;6.88;;;38.50;46.60;;;;;;5052528;28;20067;-73
2021/07/03 10:57:00;;;;;;;12.48;7.20;;;38.00;47.20;;;;;;5052983;28;20047;-73
2021/07/03 10:59:27;;;;;;;7.43;5.53;;;37.70;47.70;;;;;;5052733;28;20037;-74
2021/07/03 11:02:04;;;;;;;8.23;6.10;;;37.80;46.90;;;;;;5052644;28;20032;-73
2021/07/03 11:04:30;;;;;;;8.55;6.15;;;38.00;46.90;;;;;;5052877;28;20018;-74
2021/07/03 11:06:55;;;;;;;11.38;6.13;;;38.40;46.50;;;;;;5052653;28;20025;-73
2021/07/03 11:09:31;;;;;;;7.70;6.18;;;38.70;46.30;;;;;;5034947;28;20383;-74
2021/07/03 11:12:10;;;;;;;7.60;6.10;;;39.00;46.10;;;;;;5052130;28;20491;-74
2021/07/03 11:14:40;;;;;;;9.30;5.82;;;39.10;45.60;;;;;;5055823;28;20047;-74
2021/07/03 11:17:07;;;;;;;8.30;6.10;;;39.30;45.30;;;;;;5056271;28;20570;-74
2021/07/03 11:19:33;;;;;;;8.43;6.00;;;39.50;45.10;;;;;;5055189;28;20126;-75
2021/07/03 11:22:09;;;;;;;15.10;6.43;;;39.90;45.00;;;;;;5056506;28;20475;-74
2021/07/03 11:25:06;;;;;;;10.40;6.90;;;40.10;43.90;;;;;;5050584;28;20052;-74
2021/07/03 11:27:36;;;;;;;8.25;6.53;;;40.10;43.80;;;;;;5038989;28;20036;-75
2021/07/03 11:30:28;;;;;;;9.93;6.15;;;40.10;43.50;;;;;;5052446;28;20589;-74
2021/07/03 11:32:56;;;;;;;7.57;5.55;;;40.00;43.70;;;;;;5054219;28;20103;-74
2021/07/03 11:35:24;;;;;;;9.15;6.10;;;40.10;43.60;;;;;;5056054;28;20090;-75
2021/07/03 11:37:50;;;;;;;8.30;5.78;;;40.30;43.60;;;;;;5055821;28;20083;-74
2021/07/03 11:40:21;;;;;;;9.60;5.90;;;40.50;43.90;;;;;;5056203;28;20028;-74
2021/07/03 11:42:50;;;;;;;9.80;5.75;;;40.90;43.60;;;;;;5056240;28;20033;-74
2021/07/03 11:45:19;;;;;;;9.70;5.70;;;41.20;43.50;;;;;;5055819;28;20021;-74
2021/07/03 11:47:51;;;;;;;14.35;7.30;;;41.50;43.00;;;;;;5055895;28;20029;-74
2021/07/03 11:50:26;;;;;;;15.80;7.78;;;41.30;42.70;;;;;;5071251;28;20028;-74
2021/07/03 11:52:53;;;;;;;16.15;8.05;;;40.50;43.40;;;;;;5055890;28;20211;-74
2021/07/03 11:55:26;;;;;;;11.02;7.03;;;40.00;44.00;;;;;;5056155;28;20025;-74
2021/07/03 11:57:53;;;;;;;7.80;6.05;;;40.30;44.00;;;;;;5055835;28;20090;-74
2021/07/03 12:00:23;;;;;;;10.20;6.22;;;40.70;44.00;;;;;;5055632;28;20058;-74
2021/07/03 12:02:49;;;;;;;9.07;5.85;;;41.10;43.50;;;;;;5055581;28;20426;-74
2021/07/03 12:05:28;;;;;;;11.52;6.32;;;41.20;43.40;;;;;;5055924;28;20075;-75
2021/07/03 12:08:02;;;;;;;6.65;5.53;;;41.30;43.10;;;;;;5051550;28;20116;-75
2021/07/03 12:10:56;;;;;;;12.52;6.00;;;41.10;43.10;;;;;;5052440;28;20029;-74
2021/07/03 12:13:29;;;;;;;10.63;6.10;;;40.80;43.10;;;;;;5051243;28;20051;-73
2021/07/03 12:15:57;;;;;;;8.75;7.10;;;40.10;43.50;;;;;;5048762;28;20078;-75
2021/07/03 12:18:52;;;;;;;8.95;6.30;;;39.20;44.00;;;;;;5055047;28;20056;-73
2021/07/03 12:21:19;;;;;;;13.20;7.15;;;38.20;45.10;;;;;;5054369;28;20447;-75
2021/07/03 12:23:47;;;;;;;9.18;7.07;;;37.30;46.20;;;;;;5054335;28;20122;-75
2021/07/03 12:26:17;;;;;;;8.60;7.70;;;36.70;47.50;;;;;;5055317;28;20035;-74
2021/07/03 12:28:56;;;;;;;9.80;7.80;;;36.40;48.40;;;;;;5047947;28;20465;-74
2021/07/03 12:31:34;;;;;;;12.70;7.45;;;37.20;48.40;;;;;;5054838;28;20116;-73
2021/07/03 12:34:09;;;;;;;8.80;6.95;;;38.10;47.80;;;;;;5053205;28;20017;-75
2021/07/03 12:36:38;;;;;;;8.02;6.78;;;39.10;46.50;;;;;;5050581;28;20100;-74
2021/07/03 12:39:23;;;;;;;11.40;6.93;;;39.10;46.10;;;;;;5053790;28;20029;-73
2021/07/03 12:42:04;;;;;;;8.65;7.63;;;38.40;46.30;;;;;;5050170;28;20124;-76
2021/07/03 12:44:41;;;;;;;11.27;7.60;;;37.70;47.00;;;;;;5052806;28;20020;-75